Time,TemperatureF,DewpointF,PressureIn,WindDirection,WindDirectionDegrees,WindSpeedMPH,WindSpeedGustMPH,Humidity,HourlyPrecipIn,Conditions,Clouds,dailyrainin,SolarRadiationWatts/m^2,SoftwareType,DateUTC
2013-11-29 00:00:00,17.8,7.0,30.35,WSW,239,1.0,8.0,64,0.00,,,0.00,0,weatherlink.com 1.10,2013-11-29 05:00:00,
2013-11-29 00:31:00,17.8,8.0,30.36,WSW,240,6.0,7.0,65,0.00,,,0.00,0,weatherlink.com 1.10,2013-11-29 05:31:00,
2013-11-29 00:46:00,17.8,8.0,30.36,SW,232,5.0,9.0,66,0.00,,,0.00,0,weatherlink.com 1.10,2013-11-29 05:46:00,
2013-11-29 01:01:00,18.1,8.0,30.37,WSW,250,5.0,10.0,66,0.00,,,0.00,0,weatherlink.com 1.10,2013-11-29 06:01:00,
2013-11-29 01:16:00,18.6,9.0,30.38,West,261,5.0,13.0,65,0.00,,,0.00,0,weatherlink.com 1.10,2013-11-29 06:16:00,
2013-11-29 01:31:00,18.6,9.0,30.38,West,261,2.0,10.0,65,0.00,,,0.00,0,weatherlink.com 1.10,2013-11-29 06:31:00,
2013-11-29 01:46:00,18.4,9.0,30.38,West,259,3.0,9.0,66,0.00,,,0.00,0,weatherlink.com 1.10,2013-11-29 06:46:00,
2013-11-29 02:01:00,18.1,9.0,30.39,West,260,5.0,6.0,68,0.00,,,0.00,0,weatherlink.com 1.10,2013-11-29 07:01:00,
2013-11-29 02:16:00,18.3,9.0,30.39,West,264,5.0,7.0,68,0.00,,,0.00,0,weatherlink.com 1.10,2013-11-29 07:16:00,
2013-11-29 02:31:00,18.4,9.0,30.38,West,267,4.0,8.0,68,0.00,,,0.00,0,weatherlink.com 1.10,2013-11-29 07:31:00,
2013-11-29 02:46:00,18.8,10.0,30.38,West,261,7.0,10.0,69,0.00,,,0.00,0,weatherlink.com 1.10,2013-11-29 07:46:00,
2013-11-29 03:01:00,18.8,11.0,30.38,WSW,254,5.0,9.0,70,0.00,,,0.00,0,weatherlink.com 1.10,2013-11-29 08:01:00,
2013-11-29 03:16:00,18.8,11.0,30.38,WSW,254,1.0,8.0,70,0.00,,,0.00,0,weatherlink.com 1.10,2013-11-29 08:16:00,
2013-11-29 03:31:00,18.1,11.0,30.38,WSW,254,1.0,5.0,72,0.00,,,0.00,0,weatherlink.com 1.10,2013-11-29 08:31:00,
2013-11-29 03:46:00,17.5,10.0,30.38,WSW,254,0.0,4.0,72,0.00,,,0.00,0,weatherlink.com 1.10,2013-11-29 08:46:00,
2013-11-29 04:01:00,16.9,10.0,30.39,WSW,254,0.0,0.0,74,0.00,,,0.00,0,weatherlink.com 1.10,2013-11-29 09:01:00,
2013-11-29 04:16:00,16.9,11.0,30.39,WSW,254,0.0,0.0,76,0.00,,,0.00,0,weatherlink.com 1.10,2013-11-29 09:16:00,
2013-11-29 04:31:00,17.0,10.0,30.40,WSW,254,0.0,0.0,75,0.00,,,0.00,0,weatherlink.com 1.10,2013-11-29 09:31:00,
2013-11-29 04:46:00,17.2,10.0,30.40,WSW,254,0.0,0.0,73,0.00,,,0.00,0,weatherlink.com 1.10,2013-11-29 09:46:00,
2013-11-29 05:01:00,17.2,10.0,30.41,WSW,254,1.0,4.0,74,0.00,,,0.00,0,weatherlink.com 1.10,2013-11-29 10:01:00,
2013-11-29 05:16:00,17.0,11.0,30.41,WSW,254,0.0,4.0,76,0.00,,,0.00,0,weatherlink.com 1.10,2013-11-29 10:16:00,
2013-11-29 05:31:00,16.2,11.0,30.42,WSW,254,1.0,5.0,78,0.00,,,0.00,0,weatherlink.com 1.10,2013-11-29 10:31:00,
2013-11-29 05:46:00,15.7,10.0,30.43,WSW,254,2.0,4.0,78,0.00,,,0.00,0,weatherlink.com 1.10,2013-11-29 10:46:00,
2013-11-29 06:01:00,15.2,10.0,30.43,WSW,254,2.0,4.0,80,0.00,,,0.00,0,weatherlink.com 1.10,2013-11-29 11:01:00,
2013-11-29 06:16:00,14.8,10.0,30.44,WSW,254,2.0,3.0,82,0.00,,,0.00,0,weatherlink.com 1.10,2013-11-29 11:16:00,
2013-11-29 06:31:00,14.3,10.0,30.44,West,264,6.0,7.0,83,0.00,,,0.00,0,weatherlink.com 1.10,2013-11-29 11:31:00,
2013-11-29 06:46:00,15.2,11.0,30.45,WNW,297,5.0,8.0,82,0.00,,,0.00,0,weatherlink.com 1.10,2013-11-29 11:46:00,
2013-11-29 07:01:00,14.8,10.0,30.45,WNW,298,1.0,9.0,82,0.00,,,0.00,7,weatherlink.com 1.10,2013-11-29 12:01:00,
2013-11-29 07:16:00,15.1,11.0,30.46,WNW,298,6.0,8.0,82,0.00,,,0.00,12,weatherlink.com 1.10,2013-11-29 12:16:00,
2013-11-29 07:31:00,15.6,10.0,30.47,WNW,298,5.0,8.0,78,0.00,,,0.00,18,weatherlink.com 1.10,2013-11-29 12:31:00,
2013-11-29 07:46:00,16.1,10.0,30.48,WNW,303,6.0,8.0,77,0.00,,,0.00,26,weatherlink.com 1.10,2013-11-29 12:46:00,
2013-11-29 08:01:00,16.4,10.0,30.48,NW,304,4.0,8.0,76,0.00,,,0.00,42,weatherlink.com 1.10,2013-11-29 13:01:00,
2013-11-29 08:16:00,18.0,10.0,30.49,West,279,4.0,10.0,71,0.00,,,0.00,125,weatherlink.com 1.10,2013-11-29 13:16:00,
2013-11-29 08:31:00,19.1,10.0,30.50,NW,304,6.0,10.0,67,0.00,,,0.00,163,weatherlink.com 1.10,2013-11-29 13:31:00,
2013-11-29 08:47:00,19.9,9.0,30.50,NW,309,6.0,15.0,62,0.00,,,0.00,207,weatherlink.com 1.10,2013-11-29 13:47:00,
2013-11-29 09:02:00,20.6,9.0,30.50,NNW,328,13.0,14.0,60,0.00,,,0.00,213,weatherlink.com 1.10,2013-11-29 14:02:00,
2013-11-29 09:17:00,21.3,8.0,30.51,NW,321,11.0,16.0,58,0.00,,,0.00,325,weatherlink.com 1.10,2013-11-29 14:17:00,
2013-11-29 09:32:00,22.1,8.0,30.51,NW,324,11.0,14.0,56,0.00,,,0.00,299,weatherlink.com 1.10,2013-11-29 14:32:00,
2013-11-29 09:47:00,22.5,8.0,30.51,WNW,297,8.0,12.0,54,0.00,,,0.00,302,weatherlink.com 1.10,2013-11-29 14:47:00,
2013-11-29 10:02:00,23.5,9.0,30.51,NNW,343,9.0,11.0,53,0.00,,,0.00,397,weatherlink.com 1.10,2013-11-29 15:02:00,
2013-11-29 10:17:00,23.3,8.0,30.51,West,271,2.0,16.0,51,0.00,,,0.00,309,weatherlink.com 1.10,2013-11-29 15:17:00,
2013-11-29 10:32:00,24.2,7.0,30.51,WSW,254,8.0,16.0,49,0.00,,,0.00,443,weatherlink.com 1.10,2013-11-29 15:32:00,
2013-11-29 10:47:00,25.0,6.0,30.51,WNW,290,12.0,14.0,44,0.00,,,0.00,462,weatherlink.com 1.10,2013-11-29 15:47:00,
2013-11-29 11:02:00,25.3,5.0,30.51,NW,305,7.0,14.0,42,0.00,,,0.00,471,weatherlink.com 1.10,2013-11-29 16:02:00,
2013-11-29 11:17:00,25.8,5.0,30.50,NW,320,9.0,14.0,41,0.00,,,0.00,478,weatherlink.com 1.10,2013-11-29 16:17:00,
2013-11-29 11:32:00,25.7,4.0,30.50,NNW,342,7.0,16.0,39,0.00,,,0.00,480,weatherlink.com 1.10,2013-11-29 16:32:00,
2013-11-29 11:47:00,26.3,4.0,30.50,NNW,347,13.0,16.0,39,0.00,,,0.00,476,weatherlink.com 1.10,2013-11-29 16:47:00,
2013-11-29 12:02:00,26.3,3.0,30.50,NW,306,10.0,15.0,37,0.00,,,0.00,471,weatherlink.com 1.10,2013-11-29 17:02:00,
2013-11-29 12:17:00,27.3,3.0,30.50,West,281,13.0,16.0,35,0.00,,,0.00,464,weatherlink.com 1.10,2013-11-29 17:17:00,
2013-11-29 12:32:00,27.9,2.0,30.50,WNW,282,8.0,20.0,33,0.00,,,0.00,454,weatherlink.com 1.10,2013-11-29 17:32:00,
2013-11-29 12:47:00,27.0,1.0,30.50,NW,325,10.0,15.0,33,0.00,,,0.00,436,weatherlink.com 1.10,2013-11-29 17:47:00,
2013-11-29 13:02:00,28.5,1.0,30.50,WNW,290,5.0,12.0,31,0.00,,,0.00,418,weatherlink.com 1.10,2013-11-29 18:02:00,
2013-11-29 13:17:00,28.1,2.0,30.50,WNW,302,7.0,16.0,32,0.00,,,0.00,397,weatherlink.com 1.10,2013-11-29 18:17:00,
2013-11-29 13:32:00,28.4,1.0,30.50,WSW,252,4.0,16.0,31,0.00,,,0.00,369,weatherlink.com 1.10,2013-11-29 18:32:00,
2013-11-29 13:47:00,28.1,-1.0,30.51,West,270,6.0,16.0,29,0.00,,,0.00,343,weatherlink.com 1.10,2013-11-29 18:47:00,
2013-11-29 14:02:00,28.4,0.0,30.51,NW,309,5.0,11.0,29,0.00,,,0.00,309,weatherlink.com 1.10,2013-11-29 19:02:00,
2013-11-29 14:17:00,28.2,1.0,30.51,WNW,292,6.0,19.0,31,0.00,,,0.00,278,weatherlink.com 1.10,2013-11-29 19:17:00,
2013-11-29 14:32:00,27.9,1.0,30.51,WNW,289,8.0,15.0,31,0.00,,,0.00,241,weatherlink.com 1.10,2013-11-29 19:32:00,
2013-11-29 14:48:00,27.3,-1.0,30.52,NW,323,14.0,18.0,30,0.00,,,0.00,206,weatherlink.com 1.10,2013-11-29 19:48:00,
2013-11-29 15:03:00,27.0,-1.0,30.53,West,273,9.0,15.0,30,0.00,,,0.00,169,weatherlink.com 1.10,2013-11-29 20:03:00,
2013-11-29 15:18:00,26.6,0.0,30.53,NNW,340,6.0,13.0,32,0.00,,,0.00,132,weatherlink.com 1.10,2013-11-29 20:18:00,
2013-11-29 15:33:00,26.3,1.0,30.53,NW,307,7.0,12.0,33,0.00,,,0.00,90,weatherlink.com 1.10,2013-11-29 20:33:00,
2013-11-29 15:48:00,25.7,0.0,30.54,North,355,9.0,14.0,33,0.00,,,0.00,49,weatherlink.com 1.10,2013-11-29 20:48:00,
2013-11-29 16:04:00,25.1,0.0,30.54,North,350,8.0,13.0,34,0.00,,,0.00,11,weatherlink.com 1.10,2013-11-29 21:04:00,
2013-11-29 16:18:00,24.4,0.0,30.55,NNW,333,7.0,11.0,35,0.00,,,0.00,0,weatherlink.com 1.10,2013-11-29 21:18:00,
2013-11-29 16:33:00,23.8,0.0,30.56,NW,321,0.0,12.0,36,0.00,,,0.00,0,weatherlink.com 1.10,2013-11-29 21:33:00,
2013-11-29 16:48:00,23.2,1.0,30.57,NW,325,4.0,11.0,38,0.00,,,0.00,0,weatherlink.com 1.10,2013-11-29 21:48:00,
2013-11-29 17:03:00,22.4,1.0,30.57,NNW,329,6.0,7.0,40,0.00,,,0.00,0,weatherlink.com 1.10,2013-11-29 22:03:00,
2013-11-29 17:18:00,21.8,2.0,30.59,NNW,329,4.0,8.0,42,0.00,,,0.00,0,weatherlink.com 1.10,2013-11-29 22:18:00,
2013-11-29 17:33:00,21.3,2.0,30.59,NW,315,1.0,9.0,43,0.00,,,0.00,0,weatherlink.com 1.10,2013-11-29 22:33:00,
2013-11-29 17:48:00,20.6,2.0,30.60,NW,315,6.0,7.0,45,0.00,,,0.00,0,weatherlink.com 1.10,2013-11-29 22:48:00,
2013-11-29 18:04:00,20.6,2.0,30.61,NW,313,5.0,11.0,45,0.00,,,0.00,0,weatherlink.com 1.10,2013-11-29 23:04:00,
2013-11-29 18:19:00,20.5,3.0,30.61,NW,316,3.0,9.0,46,0.00,,,0.00,0,weatherlink.com 1.10,2013-11-29 23:19:00,
2013-11-29 18:34:00,20.0,2.0,30.62,NW,319,3.0,7.0,46,0.00,,,0.00,0,weatherlink.com 1.10,2013-11-29 23:34:00,
2013-11-29 18:49:00,19.4,3.0,30.62,NW,320,2.0,6.0,48,0.00,,,0.00,0,weatherlink.com 1.10,2013-11-29 23:49:00,
2013-11-29 19:04:00,18.6,3.0,30.62,NW,320,2.0,6.0,51,0.00,,,0.00,0,weatherlink.com 1.10,2013-11-30 00:04:00,
2013-11-29 19:19:00,18.4,3.0,30.63,NW,315,5.0,8.0,51,0.00,,,0.00,0,weatherlink.com 1.10,2013-11-30 00:19:00,
2013-11-29 19:34:00,18.3,3.0,30.63,NW,315,2.0,8.0,51,0.00,,,0.00,0,weatherlink.com 1.10,2013-11-30 00:34:00,
2013-11-29 19:49:00,17.8,3.0,30.64,NW,314,3.0,8.0,53,0.00,,,0.00,0,weatherlink.com 1.10,2013-11-30 00:49:00,
2013-11-29 20:04:00,17.3,4.0,30.64,NW,313,0.0,7.0,56,0.00,,,0.00,0,weatherlink.com 1.10,2013-11-30 01:04:00,
2013-11-29 20:19:00,16.5,4.0,30.64,NW,313,0.0,1.0,59,0.00,,,0.00,0,weatherlink.com 1.10,2013-11-30 01:19:00,
2013-11-29 20:34:00,15.9,5.0,30.64,NW,313,0.0,2.0,61,0.00,,,0.00,0,weatherlink.com 1.10,2013-11-30 01:34:00,
2013-11-29 20:49:00,15.4,4.0,30.64,NW,313,0.0,2.0,61,0.00,,,0.00,0,weatherlink.com 1.10,2013-11-30 01:49:00,
2013-11-29 21:04:00,15.4,4.0,30.66,NW,313,0.0,0.0,61,0.00,,,0.00,0,weatherlink.com 1.10,2013-11-30 02:04:00,
2013-11-29 21:19:00,15.7,4.0,30.66,NW,313,0.0,0.0,60,0.00,,,0.00,0,weatherlink.com 1.10,2013-11-30 02:19:00,
2013-11-29 21:35:00,16.1,4.0,30.67,NW,313,0.0,0.0,60,0.00,,,0.00,0,weatherlink.com 1.10,2013-11-30 02:35:00,
2013-11-29 21:50:00,15.7,4.0,30.67,NW,313,0.0,2.0,60,0.00,,,0.00,0,weatherlink.com 1.10,2013-11-30 02:50:00,
2013-11-29 22:05:00,15.4,4.0,30.67,NW,313,0.0,0.0,61,0.00,,,0.00,0,weatherlink.com 1.10,2013-11-30 03:05:00,
2013-11-29 22:20:00,15.1,5.0,30.67,NW,313,0.0,6.0,63,0.00,,,0.00,0,weatherlink.com 1.10,2013-11-30 03:20:00,
2013-11-29 22:35:00,14.3,4.0,30.68,NW,313,0.0,1.0,64,0.00,,,0.00,0,weatherlink.com 1.10,2013-11-30 03:35:00,
2013-11-29 22:50:00,14.1,5.0,30.68,NW,313,0.0,0.0,66,0.00,,,0.00,0,weatherlink.com 1.10,2013-11-30 03:50:00,
2013-11-29 23:05:00,14.0,5.0,30.69,NW,313,0.0,2.0,68,0.00,,,0.00,0,weatherlink.com 1.10,2013-11-30 04:05:00,
2013-11-29 23:20:00,14.0,5.0,30.69,NW,313,0.0,2.0,67,0.00,,,0.00,0,weatherlink.com 1.10,2013-11-30 04:20:00,
2013-11-29 23:35:00,13.8,4.0,30.69,NW,313,0.0,0.0,66,0.00,,,0.00,0,weatherlink.com 1.10,2013-11-30 04:35:00,
2013-11-29 23:50:00,13.5,5.0,30.69,NW,313,0.0,0.0,69,0.00,,,0.00,0,weatherlink.com 1.10,2013-11-30 04:50:00,